sensor_id;sensor_type;location;lat;lon;timestamp;P1;durP1;ratioP1;P2;durP2;ratioP2
69185;SDS011;56298;49.246;9.410;2023-07-09T16:43:21;7.75;;;3.85;;
69185;SDS011;56298;49.246;9.410;2023-07-09T16:45:47;8.15;;;4.20;;
69185;SDS011;56298;49.246;9.410;2023-07-09T16:48:19;9.17;;;4.20;;
69185;SDS011;56298;49.246;9.410;2023-07-09T16:50:47;8.52;;;4.00;;
69185;SDS011;56298;49.246;9.410;2023-07-09T16:53:14;7.55;;;4.18;;
69185;SDS011;56298;49.246;9.410;2023-07-09T16:55:41;7.55;;;4.13;;
69185;SDS011;56298;49.246;9.410;2023-07-09T16:58:12;7.75;;;3.95;;
69185;SDS011;56298;49.246;9.410;2023-07-09T17:00:50;8.68;;;3.97;;
69185;SDS011;56298;49.246;9.410;2023-07-09T17:03:15;8.73;;;4.20;;
69185;SDS011;56298;49.246;9.410;2023-07-09T17:05:41;8.97;;;3.97;;
69185;SDS011;56298;49.246;9.410;2023-07-09T17:08:06;7.40;;;3.73;;
69185;SDS011;56298;49.246;9.410;2023-07-09T17:10:31;7.30;;;4.07;;
69185;SDS011;56298;49.246;9.410;2023-07-09T17:12:58;6.88;;;3.70;;
69185;SDS011;56298;49.246;9.410;2023-07-09T17:15:25;7.95;;;3.80;;
69185;SDS011;56298;49.246;9.410;2023-07-09T17:17:58;8.63;;;4.32;;
69185;SDS011;56298;49.246;9.410;2023-07-09T17:20:26;7.80;;;3.97;;
69185;SDS011;56298;49.246;9.410;2023-07-09T17:22:53;7.73;;;3.90;;
69185;SDS011;56298;49.246;9.410;2023-07-09T17:25:32;7.22;;;4.20;;
69185;SDS011;56298;49.246;9.410;2023-07-09T17:28:10;9.43;;;4.30;;
69185;SDS011;56298;49.246;9.410;2023-07-09T17:30:37;7.80;;;4.07;;
69185;SDS011;56298;49.246;9.410;2023-07-09T17:33:02;8.43;;;3.95;;
69185;SDS011;56298;49.246;9.410;2023-07-09T17:35:27;9.33;;;4.00;;
69185;SDS011;56298;49.246;9.410;2023-07-09T17:37:53;9.10;;;4.20;;
69185;SDS011;56298;49.246;9.410;2023-07-09T17:40:22;7.55;;;4.03;;
69185;SDS011;56298;49.246;9.410;2023-07-09T17:42:51;8.10;;;4.03;;
69185;SDS011;56298;49.246;9.410;2023-07-09T17:45:16;7.50;;;3.93;;
69185;SDS011;56298;49.246;9.410;2023-07-09T17:47:42;8.67;;;4.17;;
69185;SDS011;56298;49.246;9.410;2023-07-09T17:50:14;8.27;;;4.43;;
69185;SDS011;56298;49.246;9.410;2023-07-09T17:52:40;6.45;;;4.10;;
69185;SDS011;56298;49.246;9.410;2023-07-09T17:55:06;6.27;;;4.07;;
69185;SDS011;56298;49.246;9.410;2023-07-09T17:57:31;8.30;;;4.35;;
69185;SDS011;56298;49.246;9.410;2023-07-09T17:59:57;8.27;;;4.20;;
69185;SDS011;56298;49.246;9.410;2023-07-09T18:02:24;8.40;;;4.20;;
69185;SDS011;56298;49.246;9.410;2023-07-09T18:04:51;9.10;;;4.40;;
69185;SDS011;56298;49.246;9.410;2023-07-09T18:07:18;8.03;;;4.37;;
69185;SDS011;56298;49.246;9.410;2023-07-09T18:09:46;9.15;;;4.50;;
69185;SDS011;56298;49.246;9.410;2023-07-09T18:12:13;8.65;;;4.45;;
69185;SDS011;56298;49.246;9.410;2023-07-09T18:14:41;8.43;;;4.57;;
69185;SDS011;56298;49.246;9.410;2023-07-09T18:17:09;9.60;;;4.40;;
69185;SDS011;56298;49.246;9.410;2023-07-09T18:19:39;8.07;;;4.60;;
69185;SDS011;56298;49.246;9.410;2023-07-09T18:22:05;7.57;;;4.10;;
69185;SDS011;56298;49.246;9.410;2023-07-09T18:24:43;10.93;;;4.20;;
69185;SDS011;56298;49.246;9.410;2023-07-09T18:27:11;8.35;;;4.40;;
69185;SDS011;56298;49.246;9.410;2023-07-09T18:29:40;9.93;;;4.47;;
69185;SDS011;56298;49.246;9.410;2023-07-09T18:32:08;8.80;;;4.90;;
69185;SDS011;56298;49.246;9.410;2023-07-09T18:34:42;9.45;;;4.50;;
69185;SDS011;56298;49.246;9.410;2023-07-09T18:37:07;9.23;;;4.60;;
69185;SDS011;56298;49.246;9.410;2023-07-09T18:39:33;9.30;;;4.90;;
69185;SDS011;56298;49.246;9.410;2023-07-09T18:41:58;7.90;;;4.60;;
69185;SDS011;56298;49.246;9.410;2023-07-09T18:44:23;8.37;;;4.67;;
69185;SDS011;56298;49.246;9.410;2023-07-09T18:46:49;8.90;;;4.45;;
69185;SDS011;56298;49.246;9.410;2023-07-09T18:49:15;9.13;;;4.63;;
69185;SDS011;56298;49.246;9.410;2023-07-09T18:51:40;8.73;;;4.70;;
69185;SDS011;56298;49.246;9.410;2023-07-09T18:54:11;8.30;;;4.70;;
69185;SDS011;56298;49.246;9.410;2023-07-09T18:56:40;8.57;;;4.53;;
69185;SDS011;56298;49.246;9.410;2023-07-09T18:59:15;10.57;;;4.83;;
69185;SDS011;56298;49.246;9.410;2023-07-09T19:01:42;8.82;;;4.63;;
69185;SDS011;56298;49.246;9.410;2023-07-09T19:04:15;10.45;;;5.03;;
69185;SDS011;56298;49.246;9.410;2023-07-09T19:06:45;10.05;;;4.80;;
69185;SDS011;56298;49.246;9.410;2023-07-09T19:09:14;9.50;;;4.60;;
69185;SDS011;56298;49.246;9.410;2023-07-09T19:11:41;8.38;;;4.70;;
69185;SDS011;56298;49.246;9.410;2023-07-09T19:14:06;10.13;;;4.80;;
69185;SDS011;56298;49.246;9.410;2023-07-09T19:16:31;9.47;;;4.77;;
69185;SDS011;56298;49.246;9.410;2023-07-09T19:18:56;8.70;;;4.57;;
69185;SDS011;56298;49.246;9.410;2023-07-09T19:21:22;8.55;;;4.75;;
69185;SDS011;56298;49.246;9.410;2023-07-09T19:23:48;9.37;;;5.03;;
69185;SDS011;56298;49.246;9.410;2023-07-09T19:26:13;7.70;;;4.93;;
69185;SDS011;56298;49.246;9.410;2023-07-09T19:28:38;8.87;;;5.00;;
69185;SDS011;56298;49.246;9.410;2023-07-09T19:31:03;15.60;;;4.93;;
69185;SDS011;56298;49.246;9.410;2023-07-09T19:33:30;8.10;;;4.60;;
69185;SDS011;56298;49.246;9.410;2023-07-09T19:36:03;8.48;;;4.88;;
69185;SDS011;56298;49.246;9.410;2023-07-09T19:38:41;7.85;;;4.78;;
69185;SDS011;56298;49.246;9.410;2023-07-09T19:41:07;8.33;;;4.87;;
69185;SDS011;56298;49.246;9.410;2023-07-09T19:43:34;9.57;;;4.88;;
69185;SDS011;56298;49.246;9.410;2023-07-09T19:46:00;7.77;;;4.30;;
69185;SDS011;56298;49.246;9.410;2023-07-09T19:48:27;8.50;;;4.53;;
69185;SDS011;56298;49.246;9.410;2023-07-09T19:50:53;9.13;;;4.90;;
69185;SDS011;56298;49.246;9.410;2023-07-09T19:53:22;8.63;;;4.80;;
69185;SDS011;56298;49.246;9.410;2023-07-09T19:55:50;8.77;;;5.05;;
69185;SDS011;56298;49.246;9.410;2023-07-09T19:58:17;9.45;;;4.80;;
69185;SDS011;56298;49.246;9.410;2023-07-09T20:00:43;8.17;;;4.57;;
69185;SDS011;56298;49.246;9.410;2023-07-09T20:03:23;7.97;;;4.80;;
69185;SDS011;56298;49.246;9.410;2023-07-09T20:05:50;8.57;;;4.73;;
69185;SDS011;56298;49.246;9.410;2023-07-09T20:08:16;11.00;;;5.00;;
69185;SDS011;56298;49.246;9.410;2023-07-09T20:10:50;16.37;;;5.70;;
69185;SDS011;56298;49.246;9.410;2023-07-09T20:13:22;10.07;;;4.90;;
69185;SDS011;56298;49.246;9.410;2023-07-09T20:15:49;8.32;;;4.60;;
69185;SDS011;56298;49.246;9.410;2023-07-09T20:18:15;8.57;;;4.80;;
69185;SDS011;56298;49.246;9.410;2023-07-09T20:20:47;9.93;;;4.78;;
69185;SDS011;56298;49.246;9.410;2023-07-09T20:23:17;8.52;;;5.07;;
69185;SDS011;56298;49.246;9.410;2023-07-09T20:25:42;8.33;;;4.63;;
69185;SDS011;56298;49.246;9.410;2023-07-09T20:28:27;10.00;;;4.60;;
69185;SDS011;56298;49.246;9.410;2023-07-09T20:30:53;9.05;;;4.88;;
69185;SDS011;56298;49.246;9.410;2023-07-09T20:33:20;8.40;;;5.00;;
69185;SDS011;56298;49.246;9.410;2023-07-09T20:35:46;9.48;;;4.75;;
69185;SDS011;56298;49.246;9.410;2023-07-09T20:38:16;12.77;;;4.90;;
69185;SDS011;56298;49.246;9.410;2023-07-09T20:40:47;10.67;;;4.90;;
69185;SDS011;56298;49.246;9.410;2023-07-09T20:43:17;9.20;;;4.80;;
69185;SDS011;56298;49.246;9.410;2023-07-09T20:45:45;9.07;;;4.80;;
69185;SDS011;56298;49.246;9.410;2023-07-09T20:48:10;9.35;;;4.70;;
69185;SDS011;56298;49.246;9.410;2023-07-09T20:50:42;9.25;;;5.30;;
69185;SDS011;56298;49.246;9.410;2023-07-09T20:53:09;8.13;;;4.70;;
69185;SDS011;56298;49.246;9.410;2023-07-09T20:55:38;8.98;;;4.28;;
69185;SDS011;56298;49.246;9.410;2023-07-09T20:58:03;8.60;;;4.83;;
69185;SDS011;56298;49.246;9.410;2023-07-09T21:00:28;9.60;;;4.70;;
69185;SDS011;56298;49.246;9.410;2023-07-09T21:02:54;9.07;;;4.73;;
69185;SDS011;56298;49.246;9.410;2023-07-09T21:05:19;8.90;;;4.50;;
69185;SDS011;56298;49.246;9.410;2023-07-09T21:07:45;7.73;;;4.50;;
69185;SDS011;56298;49.246;9.410;2023-07-09T21:12:45;10.05;;;4.38;;
69185;SDS011;56298;49.246;9.410;2023-07-09T21:15:10;9.23;;;4.73;;
69185;SDS011;56298;49.246;9.410;2023-07-09T21:17:36;9.47;;;4.80;;
69185;SDS011;56298;49.246;9.410;2023-07-09T21:20:04;10.32;;;4.70;;
69185;SDS011;56298;49.246;9.410;2023-07-09T21:22:36;9.13;;;4.40;;
69185;SDS011;56298;49.246;9.410;2023-07-09T21:25:02;9.17;;;4.40;;
69185;SDS011;56298;49.246;9.410;2023-07-09T21:27:40;8.30;;;4.57;;
69185;SDS011;56298;49.246;9.410;2023-07-09T21:30:07;8.97;;;4.90;;
69185;SDS011;56298;49.246;9.410;2023-07-09T21:32:33;8.65;;;4.60;;
69185;SDS011;56298;49.246;9.410;2023-07-09T21:34:58;9.00;;;4.80;;
69185;SDS011;56298;49.246;9.410;2023-07-09T21:37:23;8.53;;;4.60;;
69185;SDS011;56298;49.246;9.410;2023-07-09T21:39:49;8.50;;;4.77;;
69185;SDS011;56298;49.246;9.410;2023-07-09T21:42:15;10.00;;;4.75;;
69185;SDS011;56298;49.246;9.410;2023-07-09T21:44:40;8.57;;;4.30;;
69185;SDS011;56298;49.246;9.410;2023-07-09T21:47:07;8.77;;;4.97;;
69185;SDS011;56298;49.246;9.410;2023-07-09T21:49:38;9.20;;;4.60;;
69185;SDS011;56298;49.246;9.410;2023-07-09T21:52:17;8.00;;;4.73;;
69185;SDS011;56298;49.246;9.410;2023-07-09T21:54:45;9.48;;;4.60;;
69185;SDS011;56298;49.246;9.410;2023-07-09T21:57:14;8.73;;;4.50;;
69185;SDS011;56298;49.246;9.410;2023-07-09T21:59:41;9.48;;;4.75;;
69185;SDS011;56298;49.246;9.410;2023-07-09T22:02:07;9.63;;;4.53;;
69185;SDS011;56298;49.246;9.410;2023-07-09T22:04:41;10.07;;;4.43;;
69185;SDS011;56298;49.246;9.410;2023-07-09T22:07:11;8.80;;;4.50;;
69185;SDS011;56298;49.246;9.410;2023-07-09T22:09:36;8.80;;;4.85;;
69185;SDS011;56298;49.246;9.410;2023-07-09T22:12:01;8.70;;;4.50;;
69185;SDS011;56298;49.246;9.410;2023-07-09T22:14:27;9.40;;;4.63;;
69185;SDS011;56298;49.246;9.410;2023-07-09T22:16:53;9.38;;;4.72;;
69185;SDS011;56298;49.246;9.410;2023-07-09T22:19:19;9.27;;;4.83;;
69185;SDS011;56298;49.246;9.410;2023-07-09T22:21:45;10.05;;;4.55;;
69185;SDS011;56298;49.246;9.410;2023-07-09T22:24:12;10.13;;;4.80;;
69185;SDS011;56298;49.246;9.410;2023-07-09T22:26:40;9.18;;;4.50;;
69185;SDS011;56298;49.246;9.410;2023-07-09T22:29:07;9.63;;;4.65;;
69185;SDS011;56298;49.246;9.410;2023-07-09T22:31:33;10.27;;;4.67;;
69185;SDS011;56298;49.246;9.410;2023-07-09T22:33:58;9.03;;;4.70;;
69185;SDS011;56298;49.246;9.410;2023-07-09T22:36:24;8.68;;;4.45;;
69185;SDS011;56298;49.246;9.410;2023-07-09T22:38:49;9.37;;;4.80;;
69185;SDS011;56298;49.246;9.410;2023-07-09T22:41:15;9.47;;;4.00;;
69185;SDS011;56298;49.246;9.410;2023-07-09T22:43:40;10.30;;;4.90;;
69185;SDS011;56298;49.246;9.410;2023-07-09T22:46:07;9.57;;;4.50;;
69185;SDS011;56298;49.246;9.410;2023-07-09T22:48:38;10.20;;;4.63;;
69185;SDS011;56298;49.246;9.410;2023-07-09T22:51:07;9.30;;;4.80;;
69185;SDS011;56298;49.246;9.410;2023-07-09T22:53:33;7.85;;;4.40;;
69185;SDS011;56298;49.246;9.410;2023-07-09T22:55:58;9.03;;;4.50;;
69185;SDS011;56298;49.246;9.410;2023-07-09T22:58:23;8.57;;;4.90;;
69185;SDS011;56298;49.246;9.410;2023-07-09T23:00:50;10.73;;;4.90;;
69185;SDS011;56298;49.246;9.410;2023-07-09T23:03:22;10.50;;;4.60;;
69185;SDS011;56298;49.246;9.410;2023-07-09T23:05:52;10.25;;;4.90;;
69185;SDS011;56298;49.246;9.410;2023-07-09T23:08:19;8.13;;;4.37;;
69185;SDS011;56298;49.246;9.410;2023-07-09T23:10:53;8.77;;;4.65;;
69185;SDS011;56298;49.246;9.410;2023-07-09T23:13:20;9.82;;;4.60;;
69185;SDS011;56298;49.246;9.410;2023-07-09T23:15:46;8.32;;;4.47;;
69185;SDS011;56298;49.246;9.410;2023-07-09T23:18:18;11.10;;;4.80;;
69185;SDS011;56298;49.246;9.410;2023-07-09T23:20:47;9.68;;;4.90;;
69185;SDS011;56298;49.246;9.410;2023-07-09T23:23:14;10.43;;;5.07;;
69185;SDS011;56298;49.246;9.410;2023-07-09T23:25:40;9.60;;;4.73;;
69185;SDS011;56298;49.246;9.410;2023-07-09T23:28:07;8.95;;;4.50;;
69185;SDS011;56298;49.246;9.410;2023-07-09T23:30:35;9.60;;;4.90;;
69185;SDS011;56298;49.246;9.410;2023-07-09T23:33:43;13.38;;;4.85;;
69185;SDS011;56298;49.246;9.410;2023-07-09T23:35:51;8.90;;;4.90;;
69185;SDS011;56298;49.246;9.410;2023-07-09T23:38:17;9.10;;;4.90;;
69185;SDS011;56298;49.246;9.410;2023-07-09T23:40:42;8.87;;;4.87;;
69185;SDS011;56298;49.246;9.410;2023-07-09T23:43:08;10.47;;;4.80;;
69185;SDS011;56298;49.246;9.410;2023-07-09T23:45:37;9.25;;;5.00;;
69185;SDS011;56298;49.246;9.410;2023-07-09T23:48:03;9.82;;;4.90;;
69185;SDS011;56298;49.246;9.410;2023-07-09T23:50:31;10.25;;;5.18;;
69185;SDS011;56298;49.246;9.410;2023-07-09T23:52:56;9.23;;;4.57;;
69185;SDS011;56298;49.246;9.410;2023-07-09T23:55:22;9.55;;;4.82;;
69185;SDS011;56298;49.246;9.410;2023-07-09T23:57:52;9.27;;;4.90;;
